sensor_id;sensor_type;location;lat;lon;timestamp;P1;durP1;ratioP1;P2;durP2;ratioP2
48853;SDS011;34673;52.808;17.856;2023-06-26T00:02:22;11.35;;;5.60;;
48853;SDS011;34673;52.808;17.856;2023-06-26T00:04:49;8.90;;;5.38;;
48853;SDS011;34673;52.808;17.856;2023-06-26T00:07:20;9.60;;;5.90;;
48853;SDS011;34673;52.808;17.856;2023-06-26T00:09:47;7.57;;;5.30;;
48853;SDS011;34673;52.808;17.856;2023-06-26T00:12:14;8.20;;;5.78;;
48853;SDS011;34673;52.808;17.856;2023-06-26T00:14:41;10.73;;;6.15;;
48853;SDS011;34673;52.808;17.856;2023-06-26T00:17:09;8.98;;;5.80;;
48853;SDS011;34673;52.808;17.856;2023-06-26T00:19:36;9.93;;;5.93;;
48853;SDS011;34673;52.808;17.856;2023-06-26T00:22:03;9.25;;;6.05;;
48853;SDS011;34673;52.808;17.856;2023-06-26T00:24:30;11.98;;;6.10;;
48853;SDS011;34673;52.808;17.856;2023-06-26T00:26:57;8.85;;;5.78;;
48853;SDS011;34673;52.808;17.856;2023-06-26T00:29:25;9.35;;;6.20;;
48853;SDS011;34673;52.808;17.856;2023-06-26T00:31:52;8.38;;;6.00;;
48853;SDS011;34673;52.808;17.856;2023-06-26T00:34:19;8.85;;;5.82;;
48853;SDS011;34673;52.808;17.856;2023-06-26T00:36:47;11.98;;;6.25;;
48853;SDS011;34673;52.808;17.856;2023-06-26T00:39:14;7.90;;;5.82;;
48853;SDS011;34673;52.808;17.856;2023-06-26T00:41:41;9.82;;;6.10;;
48853;SDS011;34673;52.808;17.856;2023-06-26T00:44:10;11.73;;;6.10;;
48853;SDS011;34673;52.808;17.856;2023-06-26T00:46:37;9.20;;;5.78;;
48853;SDS011;34673;52.808;17.856;2023-06-26T00:49:05;9.43;;;6.03;;
48853;SDS011;34673;52.808;17.856;2023-06-26T00:51:32;10.13;;;6.65;;
48853;SDS011;34673;52.808;17.856;2023-06-26T00:54:00;12.25;;;6.50;;
48853;SDS011;34673;52.808;17.856;2023-06-26T00:56:28;10.45;;;6.70;;
48853;SDS011;34673;52.808;17.856;2023-06-26T00:58:56;7.80;;;6.03;;
48853;SDS011;34673;52.808;17.856;2023-06-26T01:01:25;8.87;;;6.00;;
48853;SDS011;34673;52.808;17.856;2023-06-26T01:03:52;7.85;;;6.00;;
48853;SDS011;34673;52.808;17.856;2023-06-26T01:06:21;9.10;;;6.50;;
48853;SDS011;34673;52.808;17.856;2023-06-26T01:08:50;9.32;;;6.68;;
48853;SDS011;34673;52.808;17.856;2023-06-26T01:11:18;7.55;;;5.70;;
48853;SDS011;34673;52.808;17.856;2023-06-26T01:13:46;8.98;;;6.50;;
48853;SDS011;34673;52.808;17.856;2023-06-26T01:16:13;9.15;;;6.68;;
48853;SDS011;34673;52.808;17.856;2023-06-26T01:18:46;8.13;;;6.20;;
48853;SDS011;34673;52.808;17.856;2023-06-26T01:21:15;7.90;;;6.40;;
48853;SDS011;34673;52.808;17.856;2023-06-26T01:24:00;10.60;;;6.72;;
48853;SDS011;34673;52.808;17.856;2023-06-26T01:26:33;11.32;;;6.15;;
48853;SDS011;34673;52.808;17.856;2023-06-26T01:29:02;9.07;;;6.22;;
48853;SDS011;34673;52.808;17.856;2023-06-26T01:31:32;9.73;;;7.03;;
48853;SDS011;34673;52.808;17.856;2023-06-26T01:34:01;10.45;;;6.95;;
48853;SDS011;34673;52.808;17.856;2023-06-26T01:36:28;10.57;;;7.20;;
48853;SDS011;34673;52.808;17.856;2023-06-26T01:38:55;10.18;;;7.15;;
48853;SDS011;34673;52.808;17.856;2023-06-26T01:41:23;10.35;;;6.72;;
48853;SDS011;34673;52.808;17.856;2023-06-26T01:57:47;8.82;;;6.35;;
48853;SDS011;34673;52.808;17.856;2023-06-26T02:00:15;7.93;;;5.93;;
48853;SDS011;34673;52.808;17.856;2023-06-26T02:02:45;9.65;;;6.63;;
48853;SDS011;34673;52.808;17.856;2023-06-26T02:05:13;8.77;;;6.78;;
48853;SDS011;34673;52.808;17.856;2023-06-26T02:07:42;11.30;;;7.25;;
48853;SDS011;34673;52.808;17.856;2023-06-26T02:10:10;8.25;;;6.10;;
48853;SDS011;34673;52.808;17.856;2023-06-26T02:12:38;9.23;;;6.80;;
48853;SDS011;34673;52.808;17.856;2023-06-26T02:15:06;12.88;;;7.47;;
48853;SDS011;34673;52.808;17.856;2023-06-26T02:17:34;12.57;;;6.72;;
48853;SDS011;34673;52.808;17.856;2023-06-26T02:20:01;10.05;;;7.10;;
48853;SDS011;34673;52.808;17.856;2023-06-26T02:22:28;10.00;;;6.47;;
48853;SDS011;34673;52.808;17.856;2023-06-26T02:24:55;10.65;;;7.25;;
48853;SDS011;34673;52.808;17.856;2023-06-26T02:27:22;10.40;;;6.75;;
48853;SDS011;34673;52.808;17.856;2023-06-26T02:29:52;10.88;;;7.05;;
48853;SDS011;34673;52.808;17.856;2023-06-26T02:32:19;9.45;;;6.57;;
48853;SDS011;34673;52.808;17.856;2023-06-26T02:34:48;9.52;;;7.18;;
48853;SDS011;34673;52.808;17.856;2023-06-26T02:37:18;12.50;;;7.82;;
48853;SDS011;34673;52.808;17.856;2023-06-26T02:39:46;13.57;;;7.22;;
48853;SDS011;34673;52.808;17.856;2023-06-26T02:42:13;11.93;;;6.80;;
48853;SDS011;34673;52.808;17.856;2023-06-26T02:44:41;9.57;;;6.55;;
48853;SDS011;34673;52.808;17.856;2023-06-26T02:47:08;9.05;;;7.28;;
48853;SDS011;34673;52.808;17.856;2023-06-26T02:49:39;8.18;;;6.88;;
48853;SDS011;34673;52.808;17.856;2023-06-26T02:52:06;10.68;;;7.10;;
48853;SDS011;34673;52.808;17.856;2023-06-26T02:54:33;11.55;;;7.55;;
48853;SDS011;34673;52.808;17.856;2023-06-26T02:57:03;12.95;;;8.02;;
48853;SDS011;34673;52.808;17.856;2023-06-26T02:59:32;9.35;;;6.55;;
48853;SDS011;34673;52.808;17.856;2023-06-26T03:02:00;10.38;;;7.47;;
48853;SDS011;34673;52.808;17.856;2023-06-26T03:04:32;8.85;;;6.65;;
48853;SDS011;34673;52.808;17.856;2023-06-26T03:07:05;10.15;;;7.35;;
48853;SDS011;34673;52.808;17.856;2023-06-26T03:09:33;11.07;;;6.63;;
48853;SDS011;34673;52.808;17.856;2023-06-26T03:12:00;9.23;;;6.32;;
48853;SDS011;34673;52.808;17.856;2023-06-26T03:14:28;12.48;;;7.50;;
48853;SDS011;34673;52.808;17.856;2023-06-26T03:16:56;10.63;;;7.97;;
48853;SDS011;34673;52.808;17.856;2023-06-26T03:19:26;8.52;;;6.65;;
48853;SDS011;34673;52.808;17.856;2023-06-26T03:22:13;9.07;;;6.40;;
48853;SDS011;34673;52.808;17.856;2023-06-26T03:24:41;10.65;;;7.47;;
48853;SDS011;34673;52.808;17.856;2023-06-26T03:27:08;11.70;;;7.38;;
48853;SDS011;34673;52.808;17.856;2023-06-26T03:29:36;10.95;;;6.80;;
48853;SDS011;34673;52.808;17.856;2023-06-26T03:32:04;12.15;;;7.57;;
48853;SDS011;34673;52.808;17.856;2023-06-26T03:34:31;12.30;;;7.47;;
48853;SDS011;34673;52.808;17.856;2023-06-26T03:36:59;12.02;;;7.80;;
48853;SDS011;34673;52.808;17.856;2023-06-26T03:39:27;12.13;;;7.65;;
48853;SDS011;34673;52.808;17.856;2023-06-26T03:41:54;12.65;;;8.23;;
48853;SDS011;34673;52.808;17.856;2023-06-26T03:44:22;11.45;;;7.38;;
48853;SDS011;34673;52.808;17.856;2023-06-26T03:46:49;10.30;;;7.25;;
48853;SDS011;34673;52.808;17.856;2023-06-26T03:49:16;13.18;;;7.25;;
48853;SDS011;34673;52.808;17.856;2023-06-26T03:51:45;13.80;;;7.53;;
48853;SDS011;34673;52.808;17.856;2023-06-26T03:54:13;10.85;;;7.70;;
48853;SDS011;34673;52.808;17.856;2023-06-26T03:56:41;12.43;;;7.68;;
48853;SDS011;34673;52.808;17.856;2023-06-26T03:59:09;12.23;;;8.20;;
48853;SDS011;34673;52.808;17.856;2023-06-26T04:01:37;11.95;;;7.70;;
48853;SDS011;34673;52.808;17.856;2023-06-26T04:04:05;11.05;;;8.13;;
48853;SDS011;34673;52.808;17.856;2023-06-26T04:06:32;10.68;;;7.55;;
48853;SDS011;34673;52.808;17.856;2023-06-26T04:09:00;11.52;;;7.57;;
48853;SDS011;34673;52.808;17.856;2023-06-26T04:11:27;13.60;;;8.48;;
48853;SDS011;34673;52.808;17.856;2023-06-26T04:13:54;11.25;;;8.27;;
48853;SDS011;34673;52.808;17.856;2023-06-26T04:16:21;12.63;;;8.25;;
48853;SDS011;34673;52.808;17.856;2023-06-26T04:18:52;11.07;;;7.75;;
48853;SDS011;34673;52.808;17.856;2023-06-26T04:21:20;12.40;;;8.25;;
48853;SDS011;34673;52.808;17.856;2023-06-26T04:23:47;13.13;;;8.13;;
48853;SDS011;34673;52.808;17.856;2023-06-26T04:26:14;14.20;;;8.05;;
48853;SDS011;34673;52.808;17.856;2023-06-26T04:28:41;13.88;;;8.45;;
48853;SDS011;34673;52.808;17.856;2023-06-26T04:31:09;12.18;;;8.23;;
48853;SDS011;34673;52.808;17.856;2023-06-26T04:33:37;11.02;;;7.57;;
48853;SDS011;34673;52.808;17.856;2023-06-26T04:36:08;14.43;;;8.20;;
48853;SDS011;34673;52.808;17.856;2023-06-26T04:38:35;13.10;;;8.38;;
48853;SDS011;34673;52.808;17.856;2023-06-26T04:41:03;13.70;;;8.60;;
48853;SDS011;34673;52.808;17.856;2023-06-26T04:43:30;14.02;;;8.27;;
48853;SDS011;34673;52.808;17.856;2023-06-26T04:45:57;15.77;;;8.48;;
48853;SDS011;34673;52.808;17.856;2023-06-26T04:48:25;14.02;;;8.32;;
48853;SDS011;34673;52.808;17.856;2023-06-26T04:50:54;13.18;;;8.40;;
48853;SDS011;34673;52.808;17.856;2023-06-26T04:53:22;14.35;;;8.73;;
48853;SDS011;34673;52.808;17.856;2023-06-26T04:55:50;18.25;;;8.15;;
48853;SDS011;34673;52.808;17.856;2023-06-26T04:58:18;13.48;;;8.18;;
48853;SDS011;34673;52.808;17.856;2023-06-26T05:00:46;13.02;;;7.93;;
48853;SDS011;34673;52.808;17.856;2023-06-26T05:03:14;15.40;;;8.15;;
48853;SDS011;34673;52.808;17.856;2023-06-26T05:05:45;15.27;;;8.73;;
48853;SDS011;34673;52.808;17.856;2023-06-26T05:08:13;12.75;;;7.43;;
48853;SDS011;34673;52.808;17.856;2023-06-26T05:10:44;9.57;;;7.00;;
48853;SDS011;34673;52.808;17.856;2023-06-26T05:13:12;10.77;;;6.90;;
48853;SDS011;34673;52.808;17.856;2023-06-26T05:15:41;11.63;;;7.50;;
48853;SDS011;34673;52.808;17.856;2023-06-26T05:18:09;10.45;;;6.93;;
48853;SDS011;34673;52.808;17.856;2023-06-26T05:20:36;9.45;;;6.68;;
48853;SDS011;34673;52.808;17.856;2023-06-26T05:23:04;14.90;;;7.72;;
48853;SDS011;34673;52.808;17.856;2023-06-26T05:25:32;10.60;;;6.70;;
48853;SDS011;34673;52.808;17.856;2023-06-26T05:28:03;12.57;;;7.10;;
48853;SDS011;34673;52.808;17.856;2023-06-26T05:30:35;10.45;;;6.40;;
48853;SDS011;34673;52.808;17.856;2023-06-26T05:33:03;11.70;;;6.22;;
48853;SDS011;34673;52.808;17.856;2023-06-26T05:35:32;11.70;;;6.93;;
48853;SDS011;34673;52.808;17.856;2023-06-26T05:38:01;9.65;;;6.28;;
48853;SDS011;34673;52.808;17.856;2023-06-26T05:40:29;10.73;;;6.38;;
48853;SDS011;34673;52.808;17.856;2023-06-26T05:42:56;11.02;;;6.88;;
48853;SDS011;34673;52.808;17.856;2023-06-26T05:45:23;11.73;;;6.88;;
48853;SDS011;34673;52.808;17.856;2023-06-26T05:47:50;9.20;;;6.22;;
48853;SDS011;34673;52.808;17.856;2023-06-26T05:50:18;11.32;;;6.55;;
48853;SDS011;34673;52.808;17.856;2023-06-26T05:52:46;9.27;;;6.15;;
48853;SDS011;34673;52.808;17.856;2023-06-26T05:55:14;12.18;;;6.97;;
48853;SDS011;34673;52.808;17.856;2023-06-26T05:57:41;11.07;;;7.20;;
48853;SDS011;34673;52.808;17.856;2023-06-26T06:00:10;12.40;;;6.75;;
48853;SDS011;34673;52.808;17.856;2023-06-26T06:02:41;9.00;;;6.55;;
48853;SDS011;34673;52.808;17.856;2023-06-26T06:05:09;14.00;;;7.15;;
48853;SDS011;34673;52.808;17.856;2023-06-26T06:07:37;10.50;;;6.68;;
48853;SDS011;34673;52.808;17.856;2023-06-26T06:10:04;11.10;;;6.75;;
48853;SDS011;34673;52.808;17.856;2023-06-26T06:12:32;13.00;;;6.50;;
48853;SDS011;34673;52.808;17.856;2023-06-26T06:14:59;12.85;;;6.95;;
48853;SDS011;34673;52.808;17.856;2023-06-26T06:17:26;10.98;;;6.60;;
48853;SDS011;34673;52.808;17.856;2023-06-26T06:19:53;11.25;;;6.95;;
48853;SDS011;34673;52.808;17.856;2023-06-26T06:22:20;10.63;;;6.53;;
48853;SDS011;34673;52.808;17.856;2023-06-26T06:24:51;9.60;;;7.22;;
48853;SDS011;34673;52.808;17.856;2023-06-26T06:29:45;9.77;;;6.22;;
48853;SDS011;34673;52.808;17.856;2023-06-26T06:32:12;10.55;;;6.30;;
48853;SDS011;34673;52.808;17.856;2023-06-26T06:34:39;10.05;;;6.72;;
48853;SDS011;34673;52.808;17.856;2023-06-26T06:37:07;10.40;;;6.88;;
48853;SDS011;34673;52.808;17.856;2023-06-26T06:39:34;10.57;;;6.03;;
48853;SDS011;34673;52.808;17.856;2023-06-26T06:42:01;8.30;;;6.28;;
48853;SDS011;34673;52.808;17.856;2023-06-26T06:44:28;9.32;;;6.10;;
48853;SDS011;34673;52.808;17.856;2023-06-26T06:46:57;8.60;;;5.43;;
48853;SDS011;34673;52.808;17.856;2023-06-26T06:49:24;8.15;;;5.22;;
48853;SDS011;34673;52.808;17.856;2023-06-26T06:51:51;10.93;;;6.10;;
48853;SDS011;34673;52.808;17.856;2023-06-26T06:54:19;7.25;;;5.45;;
48853;SDS011;34673;52.808;17.856;2023-06-26T06:56:46;8.88;;;5.78;;
48853;SDS011;34673;52.808;17.856;2023-06-26T06:59:13;7.85;;;5.80;;
48853;SDS011;34673;52.808;17.856;2023-06-26T07:01:42;8.48;;;5.85;;
48853;SDS011;34673;52.808;17.856;2023-06-26T07:04:09;9.82;;;5.28;;
48853;SDS011;34673;52.808;17.856;2023-06-26T07:06:36;9.05;;;5.45;;
48853;SDS011;34673;52.808;17.856;2023-06-26T07:09:04;8.95;;;5.30;;
48853;SDS011;34673;52.808;17.856;2023-06-26T07:11:32;7.00;;;5.53;;
48853;SDS011;34673;52.808;17.856;2023-06-26T07:13:59;7.95;;;5.60;;
48853;SDS011;34673;52.808;17.856;2023-06-26T07:16:27;8.13;;;5.63;;
48853;SDS011;34673;52.808;17.856;2023-06-26T07:18:54;8.35;;;5.40;;
48853;SDS011;34673;52.808;17.856;2023-06-26T07:21:22;11.07;;;6.05;;
48853;SDS011;34673;52.808;17.856;2023-06-26T07:26:19;9.07;;;5.95;;
48853;SDS011;34673;52.808;17.856;2023-06-26T07:29:08;9.73;;;5.60;;
48853;SDS011;34673;52.808;17.856;2023-06-26T07:31:36;8.23;;;5.38;;
48853;SDS011;34673;52.808;17.856;2023-06-26T07:34:03;6.97;;;5.80;;
48853;SDS011;34673;52.808;17.856;2023-06-26T07:36:30;7.65;;;5.53;;
48853;SDS011;34673;52.808;17.856;2023-06-26T07:38:57;10.85;;;6.10;;
48853;SDS011;34673;52.808;17.856;2023-06-26T07:41:24;10.52;;;6.00;;
48853;SDS011;34673;52.808;17.856;2023-06-26T07:43:51;10.60;;;6.25;;
48853;SDS011;34673;52.808;17.856;2023-06-26T07:46:19;10.88;;;5.50;;
48853;SDS011;34673;52.808;17.856;2023-06-26T07:48:46;7.88;;;5.53;;
48853;SDS011;34673;52.808;17.856;2023-06-26T07:51:13;10.50;;;5.15;;
48853;SDS011;34673;52.808;17.856;2023-06-26T07:53:40;8.90;;;5.20;;
48853;SDS011;34673;52.808;17.856;2023-06-26T07:56:08;9.82;;;5.50;;
48853;SDS011;34673;52.808;17.856;2023-06-26T07:58:35;7.93;;;5.28;;
48853;SDS011;34673;52.808;17.856;2023-06-26T08:01:05;7.75;;;5.00;;
48853;SDS011;34673;52.808;17.856;2023-06-26T08:03:32;6.88;;;4.88;;
48853;SDS011;34673;52.808;17.856;2023-06-26T08:06:01;8.77;;;4.88;;
48853;SDS011;34673;52.808;17.856;2023-06-26T08:08:30;8.40;;;4.75;;
48853;SDS011;34673;52.808;17.856;2023-06-26T08:10:57;8.38;;;4.88;;
48853;SDS011;34673;52.808;17.856;2023-06-26T08:13:24;15.20;;;5.00;;
48853;SDS011;34673;52.808;17.856;2023-06-26T08:15:52;7.18;;;4.90;;
48853;SDS011;34673;52.808;17.856;2023-06-26T08:18:19;7.68;;;5.28;;
48853;SDS011;34673;52.808;17.856;2023-06-26T08:20:46;8.30;;;5.45;;
48853;SDS011;34673;52.808;17.856;2023-06-26T08:23:13;9.60;;;5.45;;
48853;SDS011;34673;52.808;17.856;2023-06-26T08:25:40;7.00;;;5.43;;
48853;SDS011;34673;52.808;17.856;2023-06-26T08:28:08;7.88;;;4.70;;
48853;SDS011;34673;52.808;17.856;2023-06-26T08:30:35;9.15;;;3.97;;
48853;SDS011;34673;52.808;17.856;2023-06-26T08:33:03;8.05;;;4.35;;
48853;SDS011;34673;52.808;17.856;2023-06-26T08:35:30;7.13;;;4.60;;
48853;SDS011;34673;52.808;17.856;2023-06-26T08:37:57;8.55;;;4.40;;
48853;SDS011;34673;52.808;17.856;2023-06-26T08:40:24;6.32;;;4.40;;
48853;SDS011;34673;52.808;17.856;2023-06-26T08:42:53;6.43;;;3.67;;
48853;SDS011;34673;52.808;17.856;2023-06-26T08:45:21;7.05;;;3.97;;
48853;SDS011;34673;52.808;17.856;2023-06-26T08:47:49;6.68;;;3.95;;
48853;SDS011;34673;52.808;17.856;2023-06-26T08:50:20;6.18;;;3.90;;
48853;SDS011;34673;52.808;17.856;2023-06-26T08:55:27;7.65;;;4.45;;
48853;SDS011;34673;52.808;17.856;2023-06-26T08:57:55;5.00;;;3.95;;
48853;SDS011;34673;52.808;17.856;2023-06-26T09:00:23;5.25;;;3.72;;
48853;SDS011;34673;52.808;17.856;2023-06-26T09:02:51;5.97;;;3.40;;
48853;SDS011;34673;52.808;17.856;2023-06-26T09:05:18;5.95;;;3.35;;
48853;SDS011;34673;52.808;17.856;2023-06-26T09:07:45;6.50;;;3.40;;
48853;SDS011;34673;52.808;17.856;2023-06-26T09:10:13;6.78;;;3.78;;
48853;SDS011;34673;52.808;17.856;2023-06-26T09:12:40;6.57;;;3.80;;
48853;SDS011;34673;52.808;17.856;2023-06-26T09:15:08;5.38;;;4.00;;
48853;SDS011;34673;52.808;17.856;2023-06-26T09:17:38;5.65;;;3.90;;
48853;SDS011;34673;52.808;17.856;2023-06-26T09:20:09;5.55;;;3.95;;
48853;SDS011;34673;52.808;17.856;2023-06-26T09:22:37;5.20;;;3.72;;
48853;SDS011;34673;52.808;17.856;2023-06-26T09:25:06;5.68;;;3.58;;
48853;SDS011;34673;52.808;17.856;2023-06-26T09:27:34;5.25;;;3.97;;
48853;SDS011;34673;52.808;17.856;2023-06-26T09:30:05;6.53;;;3.70;;
48853;SDS011;34673;52.808;17.856;2023-06-26T09:32:37;8.70;;;4.05;;
48853;SDS011;34673;52.808;17.856;2023-06-26T09:35:05;5.53;;;3.67;;
48853;SDS011;34673;52.808;17.856;2023-06-26T09:37:32;7.13;;;4.00;;
48853;SDS011;34673;52.808;17.856;2023-06-26T09:40:01;5.10;;;3.60;;
48853;SDS011;34673;52.808;17.856;2023-06-26T09:42:28;5.10;;;3.45;;
48853;SDS011;34673;52.808;17.856;2023-06-26T09:44:56;4.90;;;3.40;;
48853;SDS011;34673;52.808;17.856;2023-06-26T09:47:24;7.15;;;3.50;;
48853;SDS011;34673;52.808;17.856;2023-06-26T09:49:51;5.57;;;3.65;;
48853;SDS011;34673;52.808;17.856;2023-06-26T09:52:19;5.93;;;3.40;;
48853;SDS011;34673;52.808;17.856;2023-06-26T09:54:46;6.07;;;3.35;;
48853;SDS011;34673;52.808;17.856;2023-06-26T09:57:16;6.65;;;3.90;;
48853;SDS011;34673;52.808;17.856;2023-06-26T09:59:44;5.03;;;3.85;;
48853;SDS011;34673;52.808;17.856;2023-06-26T10:02:14;6.13;;;3.83;;
48853;SDS011;34673;52.808;17.856;2023-06-26T10:04:42;6.63;;;3.67;;
48853;SDS011;34673;52.808;17.856;2023-06-26T10:07:10;5.05;;;3.78;;
48853;SDS011;34673;52.808;17.856;2023-06-26T10:09:42;5.30;;;3.75;;
48853;SDS011;34673;52.808;17.856;2023-06-26T10:12:13;4.38;;;3.25;;
48853;SDS011;34673;52.808;17.856;2023-06-26T10:14:46;5.65;;;3.42;;
48853;SDS011;34673;52.808;17.856;2023-06-26T10:17:16;4.13;;;3.22;;
48853;SDS011;34673;52.808;17.856;2023-06-26T10:19:47;6.53;;;3.22;;
48853;SDS011;34673;52.808;17.856;2023-06-26T10:22:15;5.45;;;3.45;;
48853;SDS011;34673;52.808;17.856;2023-06-26T10:24:45;5.32;;;3.40;;
48853;SDS011;34673;52.808;17.856;2023-06-26T10:27:17;4.78;;;3.47;;
48853;SDS011;34673;52.808;17.856;2023-06-26T10:29:48;3.90;;;2.90;;
48853;SDS011;34673;52.808;17.856;2023-06-26T10:32:20;7.63;;;3.63;;
48853;SDS011;34673;52.808;17.856;2023-06-26T10:34:48;3.70;;;3.28;;
48853;SDS011;34673;52.808;17.856;2023-06-26T10:37:15;4.53;;;3.28;;
48853;SDS011;34673;52.808;17.856;2023-06-26T10:42:13;4.13;;;3.28;;
48853;SDS011;34673;52.808;17.856;2023-06-26T10:44:42;6.47;;;3.28;;
48853;SDS011;34673;52.808;17.856;2023-06-26T10:47:29;5.07;;;3.42;;
48853;SDS011;34673;52.808;17.856;2023-06-26T10:55:37;4.22;;;3.47;;
48853;SDS011;34673;52.808;17.856;2023-06-26T10:58:50;5.45;;;3.25;;
48853;SDS011;34673;52.808;17.856;2023-06-26T11:03:38;7.65;;;3.40;;
48853;SDS011;34673;52.808;17.856;2023-06-26T11:06:09;7.03;;;3.45;;
48853;SDS011;34673;52.808;17.856;2023-06-26T11:08:44;6.43;;;3.47;;
48853;SDS011;34673;52.808;17.856;2023-06-26T11:11:12;5.47;;;3.40;;
48853;SDS011;34673;52.808;17.856;2023-06-26T11:13:40;7.53;;;3.10;;
48853;SDS011;34673;52.808;17.856;2023-06-26T11:16:08;4.95;;;2.60;;
48853;SDS011;34673;52.808;17.856;2023-06-26T11:18:35;3.72;;;2.60;;
48853;SDS011;34673;52.808;17.856;2023-06-26T11:21:06;4.68;;;2.70;;
48853;SDS011;34673;52.808;17.856;2023-06-26T11:23:40;4.03;;;2.65;;
48853;SDS011;34673;52.808;17.856;2023-06-26T11:26:17;4.03;;;2.88;;
48853;SDS011;34673;52.808;17.856;2023-06-26T11:28:56;4.72;;;3.03;;
48853;SDS011;34673;52.808;17.856;2023-06-26T11:31:27;5.97;;;3.08;;
48853;SDS011;34673;52.808;17.856;2023-06-26T11:33:57;3.92;;;2.63;;
48853;SDS011;34673;52.808;17.856;2023-06-26T11:36:26;5.10;;;3.25;;
48853;SDS011;34673;52.808;17.856;2023-06-26T11:39:03;3.88;;;2.72;;
48853;SDS011;34673;52.808;17.856;2023-06-26T11:41:35;5.05;;;3.22;;
48853;SDS011;34673;52.808;17.856;2023-06-26T11:44:03;7.07;;;2.97;;
48853;SDS011;34673;52.808;17.856;2023-06-26T11:46:33;5.13;;;2.97;;
48853;SDS011;34673;52.808;17.856;2023-06-26T11:49:04;4.28;;;2.97;;
48853;SDS011;34673;52.808;17.856;2023-06-26T11:51:32;4.25;;;2.55;;
48853;SDS011;34673;52.808;17.856;2023-06-26T11:54:01;4.78;;;3.22;;
48853;SDS011;34673;52.808;17.856;2023-06-26T11:56:32;3.80;;;2.65;;
48853;SDS011;34673;52.808;17.856;2023-06-26T12:01:31;5.07;;;2.67;;
48853;SDS011;34673;52.808;17.856;2023-06-26T12:04:08;5.30;;;3.30;;
48853;SDS011;34673;52.808;17.856;2023-06-26T12:06:38;3.90;;;2.88;;
48853;SDS011;34673;52.808;17.856;2023-06-26T12:09:08;4.80;;;2.95;;
48853;SDS011;34673;52.808;17.856;2023-06-26T12:11:38;4.00;;;2.75;;
48853;SDS011;34673;52.808;17.856;2023-06-26T12:14:10;4.50;;;3.35;;
48853;SDS011;34673;52.808;17.856;2023-06-26T12:16:39;5.10;;;2.85;;
48853;SDS011;34673;52.808;17.856;2023-06-26T12:19:07;4.63;;;2.58;;
48853;SDS011;34673;52.808;17.856;2023-06-26T12:24:09;4.80;;;2.50;;
48853;SDS011;34673;52.808;17.856;2023-06-26T12:26:46;4.55;;;2.83;;
48853;SDS011;34673;52.808;17.856;2023-06-26T12:29:17;4.05;;;2.90;;
48853;SDS011;34673;52.808;17.856;2023-06-26T12:31:51;4.32;;;2.40;;
48853;SDS011;34673;52.808;17.856;2023-06-26T12:34:20;3.05;;;2.28;;
48853;SDS011;34673;52.808;17.856;2023-06-26T12:36:52;3.60;;;2.53;;
48853;SDS011;34673;52.808;17.856;2023-06-26T12:39:20;3.63;;;2.55;;
48853;SDS011;34673;52.808;17.856;2023-06-26T12:44:25;4.70;;;2.55;;
48853;SDS011;34673;52.808;17.856;2023-06-26T12:46:55;4.95;;;2.80;;
48853;SDS011;34673;52.808;17.856;2023-06-26T12:51:58;4.72;;;2.55;;
48853;SDS011;34673;52.808;17.856;2023-06-26T12:54:28;4.05;;;2.60;;
48853;SDS011;34673;52.808;17.856;2023-06-26T12:56:55;4.93;;;2.92;;
48853;SDS011;34673;52.808;17.856;2023-06-26T12:59:23;3.13;;;2.45;;
48853;SDS011;34673;52.808;17.856;2023-06-26T13:01:50;6.53;;;2.65;;
48853;SDS011;34673;52.808;17.856;2023-06-26T13:04:17;4.00;;;2.60;;
48853;SDS011;34673;52.808;17.856;2023-06-26T13:06:45;6.93;;;3.00;;
48853;SDS011;34673;52.808;17.856;2023-06-26T13:09:12;8.02;;;3.17;;
48853;SDS011;34673;52.808;17.856;2023-06-26T13:11:39;3.63;;;2.67;;
48853;SDS011;34673;52.808;17.856;2023-06-26T13:14:07;5.40;;;2.90;;
48853;SDS011;34673;52.808;17.856;2023-06-26T13:16:37;5.47;;;2.60;;
48853;SDS011;34673;52.808;17.856;2023-06-26T13:19:05;5.03;;;3.13;;
48853;SDS011;34673;52.808;17.856;2023-06-26T13:21:33;6.78;;;3.03;;
48853;SDS011;34673;52.808;17.856;2023-06-26T13:24:01;3.38;;;2.70;;
48853;SDS011;34673;52.808;17.856;2023-06-26T13:26:30;4.90;;;3.10;;
48853;SDS011;34673;52.808;17.856;2023-06-26T13:29:01;4.72;;;2.97;;
48853;SDS011;34673;52.808;17.856;2023-06-26T13:31:29;5.25;;;3.28;;
48853;SDS011;34673;52.808;17.856;2023-06-26T13:33:57;4.70;;;3.13;;
48853;SDS011;34673;52.808;17.856;2023-06-26T13:36:26;4.47;;;3.10;;
48853;SDS011;34673;52.808;17.856;2023-06-26T13:38:54;5.15;;;3.00;;
48853;SDS011;34673;52.808;17.856;2023-06-26T13:41:25;5.43;;;3.50;;
48853;SDS011;34673;52.808;17.856;2023-06-26T13:43:52;6.40;;;3.20;;
48853;SDS011;34673;52.808;17.856;2023-06-26T13:46:23;4.15;;;3.03;;
48853;SDS011;34673;52.808;17.856;2023-06-26T13:48:50;4.55;;;2.90;;
48853;SDS011;34673;52.808;17.856;2023-06-26T13:51:17;5.63;;;3.13;;
48853;SDS011;34673;52.808;17.856;2023-06-26T13:53:45;5.22;;;2.90;;
48853;SDS011;34673;52.808;17.856;2023-06-26T13:56:12;3.88;;;3.10;;
48853;SDS011;34673;52.808;17.856;2023-06-26T13:58:39;5.85;;;3.30;;
48853;SDS011;34673;52.808;17.856;2023-06-26T14:01:06;5.40;;;3.08;;
48853;SDS011;34673;52.808;17.856;2023-06-26T14:03:33;5.90;;;3.08;;
48853;SDS011;34673;52.808;17.856;2023-06-26T14:06:01;4.85;;;3.20;;
48853;SDS011;34673;52.808;17.856;2023-06-26T14:08:28;3.50;;;2.97;;
48853;SDS011;34673;52.808;17.856;2023-06-26T14:10:55;5.38;;;3.10;;
48853;SDS011;34673;52.808;17.856;2023-06-26T14:13:22;4.55;;;3.00;;
48853;SDS011;34673;52.808;17.856;2023-06-26T14:15:50;3.70;;;2.85;;
48853;SDS011;34673;52.808;17.856;2023-06-26T14:18:20;4.97;;;3.35;;
48853;SDS011;34673;52.808;17.856;2023-06-26T14:20:51;5.22;;;3.22;;
48853;SDS011;34673;52.808;17.856;2023-06-26T14:23:18;3.80;;;3.30;;
48853;SDS011;34673;52.808;17.856;2023-06-26T14:25:45;4.88;;;3.33;;
48853;SDS011;34673;52.808;17.856;2023-06-26T14:28:15;5.20;;;3.35;;
48853;SDS011;34673;52.808;17.856;2023-06-26T14:30:42;10.95;;;9.38;;
48853;SDS011;34673;52.808;17.856;2023-06-26T14:33:10;6.07;;;3.40;;
48853;SDS011;34673;52.808;17.856;2023-06-26T14:35:37;5.63;;;3.45;;
48853;SDS011;34673;52.808;17.856;2023-06-26T14:38:04;3.90;;;3.08;;
48853;SDS011;34673;52.808;17.856;2023-06-26T14:40:31;6.30;;;3.00;;
48853;SDS011;34673;52.808;17.856;2023-06-26T14:42:59;5.35;;;3.40;;
48853;SDS011;34673;52.808;17.856;2023-06-26T14:45:27;5.80;;;3.35;;
48853;SDS011;34673;52.808;17.856;2023-06-26T14:47:54;7.22;;;3.33;;
48853;SDS011;34673;52.808;17.856;2023-06-26T14:50:22;4.85;;;3.22;;
48853;SDS011;34673;52.808;17.856;2023-06-26T14:52:49;4.30;;;2.97;;
48853;SDS011;34673;52.808;17.856;2023-06-26T14:55:16;4.97;;;3.00;;
48853;SDS011;34673;52.808;17.856;2023-06-26T14:57:43;6.43;;;3.20;;
48853;SDS011;34673;52.808;17.856;2023-06-26T15:00:11;7.60;;;3.65;;
48853;SDS011;34673;52.808;17.856;2023-06-26T15:02:39;4.25;;;3.13;;
48853;SDS011;34673;52.808;17.856;2023-06-26T15:05:07;7.70;;;3.17;;
48853;SDS011;34673;52.808;17.856;2023-06-26T15:07:34;5.15;;;3.30;;
48853;SDS011;34673;52.808;17.856;2023-06-26T15:10:02;5.13;;;3.60;;
48853;SDS011;34673;52.808;17.856;2023-06-26T15:12:29;4.32;;;3.20;;
48853;SDS011;34673;52.808;17.856;2023-06-26T15:14:56;5.53;;;3.25;;
48853;SDS011;34673;52.808;17.856;2023-06-26T15:17:24;4.63;;;3.15;;
48853;SDS011;34673;52.808;17.856;2023-06-26T15:19:51;5.72;;;3.30;;
48853;SDS011;34673;52.808;17.856;2023-06-26T15:22:18;6.72;;;3.50;;